createdAt,value
2019-03-11T00:00:37.277Z,2.80
2019-03-11T00:03:05.806Z,2.80
2019-03-11T00:05:34.253Z,2.80
2019-03-11T00:08:02.887Z,2.70
2019-03-11T00:10:31.394Z,2.70
2019-03-11T00:13:00.669Z,2.70
2019-03-11T00:15:29.163Z,2.70
2019-03-11T00:17:57.648Z,2.80
2019-03-11T00:20:26.117Z,2.80
2019-03-11T00:22:54.610Z,2.80
2019-03-11T00:25:23.105Z,2.80
2019-03-11T00:27:51.563Z,2.90
2019-03-11T00:30:20.152Z,2.90
2019-03-11T00:32:48.651Z,2.90
2019-03-11T00:35:17.101Z,2.90
2019-03-11T00:37:45.564Z,2.90
2019-03-11T00:40:15.287Z,2.70
2019-03-11T00:42:43.773Z,2.50
2019-03-11T00:45:16.111Z,2.10
2019-03-11T00:47:44.573Z,1.60
2019-03-11T00:50:13.500Z,1.40
2019-03-11T00:52:42.033Z,1.20
2019-03-11T00:55:14.104Z,1.10
2019-03-11T00:57:42.727Z,1.10
2019-03-11T01:00:29.122Z,1.10
2019-03-11T01:02:57.652Z,1.10
2019-03-11T01:05:26.141Z,1.00
2019-03-11T01:07:54.669Z,1.10
2019-03-11T01:10:23.785Z,1.00
2019-03-11T01:12:52.244Z,1.00
2019-03-11T01:15:20.661Z,1.00
2019-03-11T01:17:50.043Z,0.90
2019-03-11T01:20:18.474Z,1.00
2019-03-11T01:22:46.966Z,0.90
2019-03-11T01:25:15.577Z,0.90
2019-03-11T01:27:44.089Z,0.90
2019-03-11T01:30:14.417Z,0.90
2019-03-11T01:32:43.056Z,0.80
2019-03-11T01:35:11.662Z,0.90
2019-03-11T01:37:40.282Z,0.80
2019-03-11T01:40:13.970Z,0.80
2019-03-11T01:42:42.505Z,0.70
2019-03-11T01:45:13.541Z,0.70
2019-03-11T01:47:42.027Z,0.80
2019-03-11T01:50:11.903Z,0.90
2019-03-11T01:52:40.389Z,1.00
2019-03-11T01:55:10.565Z,1.10
2019-03-11T01:57:39.025Z,1.10
2019-03-11T02:00:18.546Z,1.10
2019-03-11T02:02:47.019Z,1.20
2019-03-11T02:05:15.471Z,1.10
2019-03-11T02:07:44.024Z,1.20
2019-03-11T02:10:14.878Z,1.20
2019-03-11T02:12:43.339Z,1.20
2019-03-11T02:15:14.425Z,1.20
2019-03-11T02:17:42.883Z,1.30
2019-03-11T02:20:14.467Z,1.30
2019-03-11T02:22:42.994Z,1.30
2019-03-11T02:25:11.899Z,1.30
2019-03-11T02:27:40.355Z,1.30
2019-03-11T02:30:14.004Z,1.30
2019-03-11T02:32:42.459Z,1.30
2019-03-11T02:35:11.013Z,1.20
2019-03-11T02:37:39.547Z,1.10
2019-03-11T02:40:11.196Z,1.00
2019-03-11T02:42:39.654Z,1.00
2019-03-11T02:45:09.849Z,1.00
2019-03-11T02:47:38.326Z,1.00
2019-03-11T02:50:09.192Z,1.00
2019-03-11T02:52:37.777Z,1.00
2019-03-11T02:55:07.471Z,1.00
2019-03-11T02:57:36.092Z,1.00
2019-03-11T03:00:11.099Z,1.10
2019-03-11T03:02:47.238Z,1.10
2019-03-11T03:05:20.046Z,1.10
2019-03-11T03:07:48.519Z,1.20
2019-03-11T03:10:17.145Z,1.30
2019-03-11T03:12:45.647Z,1.30
2019-03-11T03:15:14.151Z,1.30
2019-03-11T03:17:42.647Z,1.30
2019-03-11T03:20:15.605Z,1.30
2019-03-11T03:23:03.423Z,1.30
2019-03-11T03:25:34.356Z,1.30
2019-03-11T03:28:02.177Z,1.30
2019-03-11T03:30:30.799Z,1.30
2019-03-11T03:32:59.355Z,1.20
2019-03-11T03:35:27.888Z,1.20
2019-03-11T03:37:56.394Z,1.20
2019-03-11T03:40:24.957Z,1.20
2019-03-11T03:42:53.590Z,1.30
2019-03-11T03:45:29.637Z,1.30
2019-03-11T03:47:58.528Z,1.30
2019-03-11T03:50:35.415Z,1.40
2019-03-11T03:53:03.950Z,1.40
2019-03-11T03:55:32.473Z,1.40
2019-03-11T03:58:02.313Z,1.40
2019-03-11T04:00:30.918Z,1.40
2019-03-11T04:02:59.406Z,1.50
2019-03-11T04:05:28.916Z,1.60
2019-03-11T04:07:57.367Z,1.60
2019-03-11T04:10:25.891Z,1.60
2019-03-11T04:12:54.397Z,1.60
2019-03-11T04:15:22.951Z,1.60
2019-03-11T04:17:51.509Z,1.60
2019-03-11T04:20:21.996Z,1.60
2019-03-11T04:22:50.470Z,1.60
2019-03-11T04:25:18.963Z,1.60
2019-03-11T04:27:47.530Z,1.60
2019-03-11T04:30:18.566Z,1.60
2019-03-11T04:32:47.009Z,1.60
2019-03-11T04:35:15.461Z,1.60
2019-03-11T04:37:43.887Z,1.60
2019-03-11T04:40:16.125Z,1.60
2019-03-11T04:42:44.618Z,1.50
2019-03-11T04:45:15.120Z,1.50
2019-03-11T04:47:43.714Z,1.50
2019-03-11T04:50:19.136Z,1.40
2019-03-11T04:52:47.819Z,1.30
2019-03-11T04:55:17.123Z,1.20
2019-03-11T04:57:52.155Z,1.20
2019-03-11T05:00:23.259Z,1.10
2019-03-11T05:02:51.698Z,1.00
2019-03-11T05:05:20.225Z,1.00
2019-03-11T05:07:48.697Z,1.00
2019-03-11T05:10:17.168Z,1.00
2019-03-11T05:12:45.698Z,0.90
2019-03-11T05:15:14.669Z,0.80
2019-03-11T05:17:43.277Z,0.90
2019-03-11T05:20:13.447Z,0.90
2019-03-11T05:22:42.002Z,0.90
2019-03-11T05:25:12.107Z,0.90
2019-03-11T05:27:40.574Z,0.90
2019-03-11T05:30:17.133Z,0.90
2019-03-11T05:32:45.637Z,0.90
2019-03-11T05:35:14.168Z,0.90
2019-03-11T05:37:42.686Z,1.00
2019-03-11T05:40:13.949Z,1.00
2019-03-11T05:42:42.416Z,1.00
2019-03-11T05:45:13.312Z,1.00
2019-03-11T05:47:41.809Z,1.00
2019-03-11T05:50:14.846Z,1.00
2019-03-11T05:52:43.514Z,1.00
2019-03-11T05:55:13.021Z,0.90
2019-03-11T05:57:41.873Z,0.90
2019-03-11T06:00:17.375Z,0.90
2019-03-11T06:02:45.828Z,0.90
2019-03-11T06:05:14.647Z,0.80
2019-03-11T06:07:43.077Z,0.70
2019-03-11T06:10:13.989Z,0.70
2019-03-11T06:12:42.424Z,0.70
2019-03-11T06:15:12.630Z,0.70
2019-03-11T06:17:41.218Z,0.60
2019-03-11T06:20:30.949Z,0.70
2019-03-11T06:23:00.755Z,0.70
2019-03-11T06:25:29.186Z,0.70
2019-03-11T06:27:57.788Z,0.70
2019-03-11T06:30:26.286Z,0.70
2019-03-11T06:32:54.761Z,0.60
2019-03-11T06:35:23.215Z,0.70
2019-03-11T06:37:51.698Z,0.70
2019-03-11T06:40:20.232Z,0.70
2019-03-11T06:42:48.691Z,0.70
2019-03-11T06:45:17.218Z,0.70
2019-03-11T06:47:45.711Z,0.70
2019-03-11T06:50:15.965Z,0.70
2019-03-11T06:52:44.438Z,0.60
2019-03-11T06:55:13.143Z,0.70
2019-03-11T06:57:41.662Z,0.70
2019-03-11T07:00:20.413Z,0.60
2019-03-11T07:02:49.018Z,0.60
2019-03-11T07:05:20.612Z,0.50
2019-03-11T07:07:47.771Z,0.60
2019-03-11T07:10:16.851Z,0.60
2019-03-11T07:12:45.468Z,0.60
2019-03-11T07:15:15.843Z,0.60
2019-03-11T07:17:45.024Z,0.70
2019-03-11T07:20:17.631Z,0.70
2019-03-11T07:22:46.154Z,0.60
2019-03-11T07:25:14.686Z,0.60
2019-03-11T07:27:43.226Z,0.60
2019-03-11T07:30:16.821Z,0.60
2019-03-11T07:32:45.345Z,0.60
2019-03-11T07:35:14.020Z,0.70
2019-03-11T07:37:42.534Z,0.70
2019-03-11T07:40:13.590Z,0.80
2019-03-11T07:42:42.037Z,0.80
2019-03-11T07:45:12.697Z,0.90
2019-03-11T07:47:41.147Z,1.00
2019-03-11T07:50:11.143Z,1.20
2019-03-11T07:52:39.678Z,1.40
2019-03-11T07:55:12.711Z,1.60
2019-03-11T07:57:41.308Z,1.50
2019-03-11T08:00:12.337Z,1.60
2019-03-11T08:02:40.777Z,1.80
2019-03-11T08:05:10.133Z,2.00
2019-03-11T08:07:38.562Z,2.20
2019-03-11T08:10:10.068Z,2.10
2019-03-11T08:12:38.494Z,2.00
2019-03-11T08:15:10.095Z,1.80
2019-03-11T08:17:38.582Z,1.70
2019-03-11T08:20:09.834Z,1.90
2019-03-11T08:22:38.262Z,2.00
2019-03-11T08:25:08.887Z,2.00
2019-03-11T08:27:37.366Z,2.10
2019-03-11T08:30:09.551Z,2.00
2019-03-11T08:32:38.025Z,2.20
2019-03-11T08:35:07.837Z,2.30
2019-03-11T08:37:36.355Z,2.40
2019-03-11T08:40:13.061Z,2.20
2019-03-11T08:42:41.601Z,2.10
2019-03-11T08:45:12.611Z,2.00
2019-03-11T08:47:41.096Z,1.80
2019-03-11T08:50:11.985Z,1.70
2019-03-11T08:52:40.433Z,1.70
2019-03-11T08:55:09.377Z,1.50
2019-03-11T08:57:40.031Z,1.60
2019-03-11T09:00:22.413Z,1.70
2019-03-11T09:02:51.030Z,2.00
2019-03-11T09:05:19.784Z,2.10
2019-03-11T09:07:48.335Z,2.00
2019-03-11T09:10:17.837Z,2.10
2019-03-11T09:12:46.594Z,2.20
2019-03-11T09:15:17.433Z,2.10
2019-03-11T09:17:45.890Z,1.90
2019-03-11T09:20:17.984Z,1.90
2019-03-11T09:22:46.435Z,1.70
2019-03-11T09:25:17.300Z,1.60
2019-03-11T09:27:45.791Z,1.80
2019-03-11T09:30:19.487Z,1.90
2019-03-11T09:32:47.961Z,1.90
2019-03-11T09:35:16.485Z,1.80
2019-03-11T09:37:45.103Z,1.60
2019-03-11T09:40:15.669Z,1.70
2019-03-11T09:42:44.166Z,1.90
2019-03-11T09:45:17.321Z,2.30
2019-03-11T09:47:46.118Z,2.50
2019-03-11T09:50:15.795Z,2.70
2019-03-11T09:52:44.246Z,2.60
2019-03-11T09:55:24.843Z,2.70
2019-03-11T09:57:53.326Z,2.80
2019-03-11T10:00:23.598Z,3.10
2019-03-11T10:02:53.421Z,3.10
2019-03-11T10:05:22.295Z,3.10
2019-03-11T10:07:50.977Z,3.10
2019-03-11T10:10:22.700Z,3.00
2019-03-11T10:12:51.148Z,2.90
2019-03-11T10:15:20.762Z,2.80
2019-03-11T10:17:49.214Z,2.40
2019-03-11T10:20:18.710Z,2.30
2019-03-11T10:22:47.585Z,2.40
2019-03-11T10:25:18.237Z,2.50
2019-03-11T10:27:46.764Z,2.60
2019-03-11T10:30:34.550Z,2.50
2019-03-11T10:33:03.659Z,2.50
2019-03-11T10:35:32.927Z,2.60
2019-03-11T10:38:01.679Z,2.70
2019-03-11T10:40:33.133Z,2.70
2019-03-11T10:43:01.589Z,2.60
2019-03-11T10:45:31.986Z,2.50
2019-03-11T10:48:00.210Z,2.50
2019-03-11T10:50:28.808Z,2.50
2019-03-11T10:52:57.263Z,2.50
2019-03-11T10:55:26.559Z,2.50
2019-03-11T10:57:55.038Z,2.60
2019-03-11T11:00:34.392Z,2.80
2019-03-11T11:03:02.956Z,3.00
2019-03-11T11:05:31.505Z,3.20
2019-03-11T11:07:59.998Z,3.30
2019-03-11T11:10:28.648Z,3.10
2019-03-11T11:12:57.154Z,3.20
2019-03-11T11:15:27.553Z,2.90
2019-03-11T11:17:56.036Z,2.90
2019-03-11T11:20:24.749Z,3.00
2019-03-11T11:22:54.316Z,3.10
2019-03-11T11:25:24.791Z,3.30
2019-03-11T11:27:53.314Z,3.00
2019-03-11T11:30:28.634Z,2.80
2019-03-11T11:32:57.246Z,2.20
2019-03-11T11:35:25.742Z,1.90
2019-03-11T11:37:54.334Z,1.70
2019-03-11T11:40:30.661Z,1.70
2019-03-11T11:42:59.389Z,1.70
2019-03-11T11:45:29.851Z,1.70
2019-03-11T11:47:58.342Z,1.70
2019-03-11T11:50:26.766Z,1.80
2019-03-11T11:52:55.317Z,1.90
2019-03-11T11:55:24.018Z,1.90
2019-03-11T11:57:52.934Z,2.20
2019-03-11T12:00:34.011Z,2.50
2019-03-11T12:03:04.041Z,2.80
2019-03-11T12:05:32.495Z,2.80
2019-03-11T12:08:02.901Z,2.90
2019-03-11T12:10:34.783Z,3.20
2019-03-11T12:13:03.254Z,3.20
2019-03-11T12:15:31.772Z,3.10
2019-03-11T12:18:01.461Z,3.10
2019-03-11T12:20:30.992Z,3.30
2019-03-11T12:22:59.557Z,3.10
2019-03-11T12:25:28.066Z,3.00
2019-03-11T12:27:58.166Z,3.10
2019-03-11T12:30:33.753Z,3.20
2019-03-11T12:33:02.386Z,3.40
2019-03-11T12:35:31.031Z,3.50
2019-03-11T12:37:59.645Z,3.80
2019-03-11T12:40:28.116Z,3.30
2019-03-11T12:42:56.603Z,2.90
2019-03-11T12:45:25.981Z,2.90
2019-03-11T12:47:56.279Z,3.10
2019-03-11T12:50:27.789Z,2.90
2019-03-11T12:52:56.357Z,2.90
2019-03-11T12:55:24.813Z,3.00
2019-03-11T12:57:53.305Z,2.80
2019-03-11T13:00:25.435Z,2.90
2019-03-11T13:02:54.202Z,2.90
2019-03-11T13:05:22.702Z,2.50
2019-03-11T13:07:51.432Z,2.60
2019-03-11T13:10:22.112Z,2.70
2019-03-11T13:12:51.086Z,2.80
2019-03-11T13:15:20.072Z,2.80
2019-03-11T13:17:48.758Z,2.90
2019-03-11T13:20:34.100Z,3.00
2019-03-11T13:23:02.530Z,3.00
2019-03-11T13:25:31.002Z,3.00
2019-03-11T13:27:59.447Z,3.00
2019-03-11T13:30:27.913Z,3.00
2019-03-11T13:32:56.369Z,3.10
2019-03-11T13:35:24.968Z,3.00
2019-03-11T13:37:53.535Z,3.00
2019-03-11T13:40:22.013Z,3.30
2019-03-11T13:42:50.505Z,3.40
2019-03-11T13:45:19.813Z,3.70
2019-03-11T13:47:48.539Z,3.90
2019-03-11T13:50:18.103Z,3.90
2019-03-11T13:52:46.871Z,3.50
2019-03-11T13:55:16.221Z,3.50
2019-03-11T13:57:44.687Z,3.20
2019-03-11T14:00:21.085Z,2.90
2019-03-11T14:02:49.557Z,2.90
2019-03-11T14:05:18.048Z,2.80
2019-03-11T14:07:46.594Z,2.60
2019-03-11T14:10:16.305Z,2.30
2019-03-11T14:12:45.534Z,2.10
2019-03-11T14:15:17.988Z,2.00
2019-03-11T14:17:46.471Z,2.00
2019-03-11T14:20:16.209Z,1.90
2019-03-11T14:22:44.794Z,2.00
2019-03-11T14:25:14.265Z,2.10
2019-03-11T14:27:42.750Z,2.10
2019-03-11T14:30:15.515Z,2.10
2019-03-11T14:32:44.041Z,2.10
2019-03-11T14:35:13.235Z,2.10
2019-03-11T14:37:41.670Z,2.00
2019-03-11T14:40:16.854Z,2.00
2019-03-11T14:42:45.367Z,2.00
2019-03-11T14:45:21.104Z,2.10
2019-03-11T14:47:49.718Z,2.20
2019-03-11T14:50:18.809Z,2.20
2019-03-11T14:52:47.366Z,2.10
2019-03-11T14:55:16.474Z,2.20
2019-03-11T15:00:41.313Z,2.30
2019-03-11T15:03:09.770Z,2.50
2019-03-11T15:05:38.221Z,2.50
2019-03-11T15:08:06.754Z,2.40
2019-03-11T15:10:35.290Z,2.40
2019-03-11T15:13:03.906Z,2.50
2019-03-11T15:15:32.428Z,2.50
2019-03-11T15:18:00.858Z,2.50
2019-03-11T15:20:29.386Z,2.60
2019-03-11T15:23:05.735Z,2.60
2019-03-11T15:25:28.001Z,2.60
2019-03-11T15:27:56.482Z,2.50
2019-03-11T15:30:25.677Z,2.40
2019-03-11T15:32:54.154Z,2.30
2019-03-11T15:35:22.611Z,2.30
2019-03-11T15:37:51.111Z,2.20
2019-03-11T15:40:19.818Z,2.20
2019-03-11T15:42:48.339Z,2.10
2019-03-11T15:45:18.782Z,2.10
2019-03-11T15:47:47.338Z,1.90
2019-03-11T15:50:24.515Z,1.80
2019-03-11T15:52:53.114Z,1.80
2019-03-11T15:55:21.550Z,1.70
2019-03-11T15:57:50.147Z,1.70
2019-03-11T16:00:23.586Z,1.80
2019-03-11T16:02:52.154Z,1.90
2019-03-11T16:05:22.053Z,1.90
2019-03-11T16:07:50.728Z,1.90
2019-03-11T16:10:19.479Z,1.90
2019-03-11T16:12:48.480Z,1.90
2019-03-11T16:15:17.533Z,1.90
2019-03-11T16:17:46.236Z,1.90
2019-03-11T16:20:17.834Z,1.90
2019-03-11T16:22:46.365Z,1.90
2019-03-11T16:25:14.957Z,1.80
2019-03-11T16:27:43.492Z,1.80
2019-03-11T16:30:15.000Z,1.80
2019-03-11T16:32:57.786Z,1.80
2019-03-11T16:35:13.636Z,1.70
2019-03-11T16:37:42.125Z,1.60
2019-03-11T16:40:12.386Z,1.60
2019-03-11T16:42:40.845Z,1.50
2019-03-11T16:45:11.808Z,1.40
2019-03-11T16:47:40.747Z,1.40
2019-03-11T16:50:14.966Z,1.30
2019-03-11T16:52:43.423Z,1.30
2019-03-11T16:55:19.350Z,1.30
2019-03-11T16:57:47.798Z,1.20
2019-03-11T17:00:22.689Z,1.20
2019-03-11T17:02:51.248Z,1.10
2019-03-11T17:05:19.771Z,1.10
2019-03-11T17:07:48.330Z,1.20
2019-03-11T17:10:18.519Z,1.10
2019-03-11T17:12:47.057Z,1.10
2019-03-11T17:15:15.612Z,1.10
2019-03-11T17:17:44.178Z,1.10
2019-03-11T17:20:15.340Z,1.10
2019-03-11T17:22:43.794Z,1.10
2019-03-11T17:25:13.590Z,1.10
2019-03-11T17:27:42.045Z,1.20
2019-03-11T17:30:19.845Z,1.20
2019-03-11T17:32:48.370Z,1.20
2019-03-11T17:35:17.137Z,1.20
2019-03-11T17:37:45.865Z,1.20
2019-03-11T17:40:18.907Z,1.20
2019-03-11T17:42:47.515Z,1.20
2019-03-11T17:45:16.603Z,1.20
2019-03-11T17:47:45.188Z,1.20
2019-03-11T17:50:23.899Z,1.20
2019-03-11T17:52:52.491Z,1.20
2019-03-11T17:55:21.262Z,1.20
2019-03-11T17:57:49.886Z,1.20
2019-03-11T18:00:21.741Z,1.20
2019-03-11T18:02:50.341Z,1.20
2019-03-11T18:05:18.918Z,1.30
2019-03-11T18:07:47.459Z,1.20
2019-03-11T18:10:15.981Z,1.20
2019-03-11T18:12:44.658Z,1.20
2019-03-11T18:15:14.325Z,1.30
2019-03-11T18:17:42.978Z,1.20
2019-03-11T18:20:16.441Z,1.20
2019-03-11T18:22:45.121Z,1.20
2019-03-11T18:25:15.530Z,1.20
2019-03-11T18:27:44.108Z,1.20
2019-03-11T18:30:20.478Z,1.30
2019-03-11T18:32:49.279Z,1.30
2019-03-11T18:35:17.973Z,1.30
2019-03-11T18:37:46.603Z,1.30
2019-03-11T18:40:16.630Z,1.30
2019-03-11T18:42:45.163Z,1.30
2019-03-11T18:45:14.294Z,1.30
2019-03-11T18:47:43.183Z,1.30
2019-03-11T18:50:17.057Z,1.30
2019-03-11T18:52:45.702Z,1.30
2019-03-11T18:55:14.995Z,1.30
2019-03-11T18:57:43.574Z,1.30
2019-03-11T19:00:15.185Z,1.30
2019-03-11T19:02:43.842Z,1.30
2019-03-11T19:05:14.747Z,1.30
2019-03-11T19:07:43.316Z,1.30
2019-03-11T19:10:14.085Z,1.30
2019-03-11T19:12:42.700Z,1.30
2019-03-11T19:15:19.176Z,1.40
2019-03-11T19:17:47.769Z,1.30
2019-03-11T19:20:21.776Z,1.30
2019-03-11T19:22:50.373Z,1.30
2019-03-11T19:25:19.125Z,1.20
2019-03-11T19:27:47.677Z,1.20
2019-03-11T19:30:21.001Z,1.30
2019-03-11T19:32:49.565Z,1.30
2019-03-11T19:35:18.955Z,1.30
2019-03-11T19:37:47.802Z,1.30
2019-03-11T19:40:22.356Z,1.30
2019-03-11T19:42:50.906Z,1.30
2019-03-11T19:45:19.331Z,1.40
2019-03-11T19:47:47.795Z,1.30
2019-03-11T19:50:17.794Z,1.40
2019-03-11T19:52:57.897Z,1.40
2019-03-11T19:55:16.672Z,1.40
2019-03-11T19:57:45.325Z,1.30
2019-03-11T20:00:22.458Z,1.30
2019-03-11T20:02:51.264Z,1.30
2019-03-11T20:05:25.442Z,1.40
2019-03-11T20:07:53.996Z,1.40
2019-03-11T20:10:22.437Z,1.40
2019-03-11T20:12:50.980Z,1.40
2019-03-11T20:15:19.427Z,1.30
2019-03-11T20:17:48.113Z,1.30
2019-03-11T20:20:17.777Z,1.30
2019-03-11T20:22:47.073Z,1.20
2019-03-11T20:25:18.449Z,1.10
2019-03-11T20:27:46.967Z,1.10
2019-03-11T20:30:18.418Z,1.00
2019-03-11T20:32:47.033Z,1.00
2019-03-11T20:35:17.604Z,1.00
2019-03-11T20:37:45.716Z,1.00
2019-03-11T20:40:14.324Z,1.00
2019-03-11T20:42:42.871Z,1.00
2019-03-11T20:45:16.443Z,1.00
2019-03-11T20:47:45.018Z,1.00
2019-03-11T20:50:17.268Z,1.00
2019-03-11T20:52:46.008Z,1.00
2019-03-11T20:55:16.730Z,1.00
2019-03-11T20:57:45.464Z,1.00
2019-03-11T21:00:27.721Z,1.00
2019-03-11T21:02:56.231Z,1.00
2019-03-11T21:05:30.529Z,1.10
2019-03-11T21:08:00.952Z,1.00
2019-03-11T21:10:29.453Z,1.00
2019-03-11T21:12:57.929Z,1.00
2019-03-11T21:15:26.377Z,0.90
2019-03-11T21:17:54.965Z,0.90
2019-03-11T21:20:23.486Z,0.90
2019-03-11T21:22:52.039Z,0.90
2019-03-11T21:25:21.401Z,0.90
2019-03-11T21:27:50.016Z,0.90
2019-03-11T21:30:25.696Z,0.90
2019-03-11T21:32:54.667Z,1.00
2019-03-11T21:35:23.448Z,1.00
2019-03-11T21:37:52.140Z,1.00
2019-03-11T21:40:22.061Z,1.00
2019-03-11T21:42:51.872Z,1.00
2019-03-11T21:45:32.973Z,1.00
2019-03-11T21:47:51.136Z,1.00
2019-03-11T21:50:24.254Z,1.00
2019-03-11T21:52:52.804Z,1.00
2019-03-11T21:55:21.331Z,1.00
2019-03-11T21:57:49.872Z,1.00
2019-03-11T22:00:33.071Z,1.00
2019-03-11T22:02:52.857Z,1.00
2019-03-11T22:05:21.310Z,1.10
2019-03-11T22:07:49.776Z,1.10
2019-03-11T22:10:18.677Z,1.10
2019-03-11T22:12:47.225Z,1.20
2019-03-11T22:15:17.310Z,1.10
2019-03-11T22:17:45.804Z,1.20
2019-03-11T22:20:16.297Z,1.20
2019-03-11T22:22:44.897Z,1.20
2019-03-11T22:25:17.150Z,1.20
2019-03-11T22:27:45.669Z,1.20
2019-03-11T22:30:24.488Z,1.20
2019-03-11T22:32:52.962Z,1.20
2019-03-11T22:35:21.466Z,1.10
2019-03-11T22:37:49.922Z,1.10
2019-03-11T22:40:19.535Z,1.10
2019-03-11T22:42:48.146Z,1.20
2019-03-11T22:45:21.631Z,1.10
2019-03-11T22:47:53.201Z,1.20
2019-03-11T22:50:21.800Z,1.20
2019-03-11T22:52:50.434Z,1.20
2019-03-11T22:55:20.220Z,1.30
2019-03-11T22:57:48.982Z,1.20
2019-03-11T23:00:20.711Z,1.20
2019-03-11T23:02:49.161Z,1.20
2019-03-11T23:05:17.629Z,1.20
2019-03-11T23:07:46.110Z,1.20
2019-03-11T23:10:14.744Z,1.30
2019-03-11T23:12:43.198Z,1.20
2019-03-11T23:15:11.728Z,1.30
2019-03-11T23:17:40.283Z,1.30
2019-03-11T23:20:09.143Z,1.30
2019-03-11T23:22:37.573Z,1.20
2019-03-11T23:25:07.391Z,1.20
2019-03-11T23:27:35.907Z,1.10
2019-03-11T23:30:10.662Z,1.10
2019-03-11T23:32:39.102Z,1.10
2019-03-11T23:35:07.897Z,1.10
2019-03-11T23:37:36.390Z,1.20
2019-03-11T23:40:06.731Z,1.20
2019-03-11T23:42:35.272Z,1.30
2019-03-11T23:45:05.557Z,1.30
2019-03-11T23:47:34.081Z,1.20
2019-03-11T23:50:02.539Z,1.30
2019-03-11T23:52:31.020Z,1.30
2019-03-11T23:55:00.879Z,1.20
2019-03-11T23:57:29.402Z,1.30
2019-03-11T23:59:57.893Z,1.30
